In Rescue
 
Open Full Screen Window  High Contrast Mode
Wind Gusting 00 knots
06
October 25, 2021 2:55 PM CDT
Weather Information
Wind Direction
  100 °
Wind Speed
  06 kt (7 mph)
Wind Gust
  00 kt (0 mph)
Altimeter
30.13 in
Visibility
10 SM
Temperature
09° C
48° F
Dewpoint
00° C
32° F
Humidity
54%
1hr Rain Fall
00.00 in.
24hr Rain Fall
00.00 in.
Sky Condition
Clear
VFR

METAR KD39 251955Z AUTO 10006KT 10SM CLR 09/00 A3013 RMK AO2 T00940002

FAA Disclaimer: The data displayed is for advisory purposes only and is not to be used for flight planning or operations.